sensor_id;sensor_type;location;lat;lon;timestamp;P1;durP1;ratioP1;P2;durP2;ratioP2
42140;SDS011;27809;51.864;5.646;2023-08-07T00:00:51;5.85;;;1.60;;
42140;SDS011;27809;51.864;5.646;2023-08-07T00:03:17;6.63;;;1.15;;
42140;SDS011;27809;51.864;5.646;2023-08-07T00:05:49;5.28;;;0.52;;
42140;SDS011;27809;51.864;5.646;2023-08-07T00:08:16;7.50;;;0.98;;
42140;SDS011;27809;51.864;5.646;2023-08-07T00:10:42;9.10;;;1.55;;
42140;SDS011;27809;51.864;5.646;2023-08-07T00:13:08;11.35;;;1.38;;
42140;SDS011;27809;51.864;5.646;2023-08-07T00:15:33;10.43;;;1.75;;
42140;SDS011;27809;51.864;5.646;2023-08-07T00:17:59;3.53;;;0.60;;
42140;SDS011;27809;51.864;5.646;2023-08-07T00:20:25;4.78;;;1.20;;
42140;SDS011;27809;51.864;5.646;2023-08-07T00:22:50;2.95;;;0.47;;
42140;SDS011;27809;51.864;5.646;2023-08-07T00:25:16;12.90;;;1.80;;
42140;SDS011;27809;51.864;5.646;2023-08-07T00:27:41;10.43;;;1.33;;
42140;SDS011;27809;51.864;5.646;2023-08-07T00:30:07;6.50;;;0.70;;
42140;SDS011;27809;51.864;5.646;2023-08-07T00:32:33;7.63;;;1.20;;
42140;SDS011;27809;51.864;5.646;2023-08-07T00:34:59;6.93;;;1.20;;
42140;SDS011;27809;51.864;5.646;2023-08-07T00:37:24;10.63;;;1.00;;
42140;SDS011;27809;51.864;5.646;2023-08-07T00:39:50;12.85;;;1.80;;
42140;SDS011;27809;51.864;5.646;2023-08-07T00:42:15;11.30;;;0.82;;
42140;SDS011;27809;51.864;5.646;2023-08-07T00:44:41;12.60;;;1.40;;
42140;SDS011;27809;51.864;5.646;2023-08-07T00:47:06;15.38;;;1.35;;
42140;SDS011;27809;51.864;5.646;2023-08-07T00:49:32;19.50;;;2.45;;
42140;SDS011;27809;51.864;5.646;2023-08-07T00:51:58;11.55;;;1.75;;
42140;SDS011;27809;51.864;5.646;2023-08-07T00:54:24;7.70;;;0.93;;
42140;SDS011;27809;51.864;5.646;2023-08-07T00:56:50;8.60;;;1.15;;
42140;SDS011;27809;51.864;5.646;2023-08-07T00:59:16;5.80;;;1.08;;
42140;SDS011;27809;51.864;5.646;2023-08-07T01:01:43;11.23;;;1.90;;
42140;SDS011;27809;51.864;5.646;2023-08-07T01:04:09;9.75;;;2.03;;
42140;SDS011;27809;51.864;5.646;2023-08-07T01:06:35;10.70;;;1.05;;
42140;SDS011;27809;51.864;5.646;2023-08-07T01:09:00;15.35;;;1.95;;
42140;SDS011;27809;51.864;5.646;2023-08-07T01:17:02;12.43;;;1.40;;
42140;SDS011;27809;51.864;5.646;2023-08-07T01:19:32;6.95;;;0.90;;
42140;SDS011;27809;51.864;5.646;2023-08-07T01:22:08;15.13;;;2.75;;
42140;SDS011;27809;51.864;5.646;2023-08-07T01:24:36;11.32;;;1.48;;
42140;SDS011;27809;51.864;5.646;2023-08-07T01:27:05;9.27;;;1.73;;
42140;SDS011;27809;51.864;5.646;2023-08-07T01:29:38;12.80;;;2.08;;
42140;SDS011;27809;51.864;5.646;2023-08-07T01:32:34;7.45;;;1.40;;
42140;SDS011;27809;51.864;5.646;2023-08-07T01:35:03;5.13;;;1.15;;
42140;SDS011;27809;51.864;5.646;2023-08-07T01:37:33;8.15;;;1.95;;
42140;SDS011;27809;51.864;5.646;2023-08-07T01:40:01;8.60;;;2.03;;
42140;SDS011;27809;51.864;5.646;2023-08-07T01:42:29;7.50;;;0.98;;
42140;SDS011;27809;51.864;5.646;2023-08-07T01:44:54;4.78;;;0.80;;
42140;SDS011;27809;51.864;5.646;2023-08-07T01:47:20;7.07;;;1.40;;
42140;SDS011;27809;51.864;5.646;2023-08-07T01:49:45;9.52;;;2.08;;
42140;SDS011;27809;51.864;5.646;2023-08-07T01:52:11;6.22;;;0.95;;
42140;SDS011;27809;51.864;5.646;2023-08-07T01:54:37;15.32;;;1.73;;
42140;SDS011;27809;51.864;5.646;2023-08-07T01:57:02;5.90;;;0.75;;
42140;SDS011;27809;51.864;5.646;2023-08-07T01:59:28;4.68;;;1.13;;
42140;SDS011;27809;51.864;5.646;2023-08-07T02:01:54;6.53;;;0.80;;
42140;SDS011;27809;51.864;5.646;2023-08-07T02:04:19;6.22;;;0.90;;
42140;SDS011;27809;51.864;5.646;2023-08-07T02:06:45;7.03;;;1.50;;
42140;SDS011;27809;51.864;5.646;2023-08-07T02:09:10;7.85;;;0.95;;
42140;SDS011;27809;51.864;5.646;2023-08-07T02:11:36;7.03;;;1.17;;
42140;SDS011;27809;51.864;5.646;2023-08-07T02:14:01;10.20;;;1.30;;
42140;SDS011;27809;51.864;5.646;2023-08-07T02:16:27;9.15;;;1.33;;
42140;SDS011;27809;51.864;5.646;2023-08-07T02:18:53;8.60;;;1.65;;
42140;SDS011;27809;51.864;5.646;2023-08-07T02:21:18;9.00;;;1.15;;
42140;SDS011;27809;51.864;5.646;2023-08-07T02:23:44;8.98;;;1.75;;
42140;SDS011;27809;51.864;5.646;2023-08-07T02:26:09;5.55;;;0.95;;
42140;SDS011;27809;51.864;5.646;2023-08-07T02:28:35;6.28;;;0.85;;
42140;SDS011;27809;51.864;5.646;2023-08-07T02:31:00;8.95;;;1.30;;
42140;SDS011;27809;51.864;5.646;2023-08-07T02:33:26;2.40;;;0.63;;
42140;SDS011;27809;51.864;5.646;2023-08-07T02:35:51;7.35;;;1.45;;
42140;SDS011;27809;51.864;5.646;2023-08-07T02:38:17;6.97;;;1.25;;
42140;SDS011;27809;51.864;5.646;2023-08-07T02:40:43;3.40;;;0.43;;
42140;SDS011;27809;51.864;5.646;2023-08-07T02:43:08;2.88;;;0.77;;
42140;SDS011;27809;51.864;5.646;2023-08-07T02:45:34;5.57;;;1.05;;
42140;SDS011;27809;51.864;5.646;2023-08-07T02:48:00;7.05;;;0.65;;
42140;SDS011;27809;51.864;5.646;2023-08-07T02:50:25;6.13;;;1.25;;
42140;SDS011;27809;51.864;5.646;2023-08-07T02:52:52;8.52;;;0.80;;
42140;SDS011;27809;51.864;5.646;2023-08-07T02:55:18;5.43;;;0.95;;
42140;SDS011;27809;51.864;5.646;2023-08-07T02:57:43;8.57;;;0.93;;
42140;SDS011;27809;51.864;5.646;2023-08-07T03:00:09;6.93;;;2.05;;
42140;SDS011;27809;51.864;5.646;2023-08-07T03:02:36;4.35;;;1.38;;
42140;SDS011;27809;51.864;5.646;2023-08-07T03:05:01;10.32;;;1.73;;
42140;SDS011;27809;51.864;5.646;2023-08-07T03:07:27;3.83;;;1.48;;
42140;SDS011;27809;51.864;5.646;2023-08-07T03:09:53;7.18;;;0.77;;
42140;SDS011;27809;51.864;5.646;2023-08-07T03:12:18;6.95;;;1.10;;
42140;SDS011;27809;51.864;5.646;2023-08-07T03:14:44;8.50;;;0.63;;
42140;SDS011;27809;51.864;5.646;2023-08-07T03:17:09;4.72;;;0.75;;
42140;SDS011;27809;51.864;5.646;2023-08-07T03:19:35;10.57;;;1.23;;
42140;SDS011;27809;51.864;5.646;2023-08-07T03:22:00;11.55;;;1.77;;
42140;SDS011;27809;51.864;5.646;2023-08-07T03:24:26;6.68;;;1.30;;
42140;SDS011;27809;51.864;5.646;2023-08-07T03:26:51;14.70;;;1.65;;
42140;SDS011;27809;51.864;5.646;2023-08-07T03:29:17;5.05;;;1.17;;
42140;SDS011;27809;51.864;5.646;2023-08-07T03:31:43;3.97;;;0.90;;
42140;SDS011;27809;51.864;5.646;2023-08-07T03:34:08;7.65;;;1.17;;
42140;SDS011;27809;51.864;5.646;2023-08-07T03:36:34;6.68;;;0.77;;
42140;SDS011;27809;51.864;5.646;2023-08-07T03:38:59;5.35;;;1.33;;
42140;SDS011;27809;51.864;5.646;2023-08-07T03:41:25;4.65;;;0.73;;
42140;SDS011;27809;51.864;5.646;2023-08-07T03:43:51;8.50;;;1.38;;
42140;SDS011;27809;51.864;5.646;2023-08-07T03:46:17;11.40;;;1.60;;
42140;SDS011;27809;51.864;5.646;2023-08-07T03:48:42;7.00;;;1.65;;
42140;SDS011;27809;51.864;5.646;2023-08-07T03:51:08;11.15;;;1.48;;
42140;SDS011;27809;51.864;5.646;2023-08-07T03:53:33;8.18;;;1.58;;
42140;SDS011;27809;51.864;5.646;2023-08-07T03:55:59;4.38;;;1.10;;
42140;SDS011;27809;51.864;5.646;2023-08-07T03:58:25;6.50;;;2.42;;
42140;SDS011;27809;51.864;5.646;2023-08-07T04:00:50;6.45;;;1.50;;
42140;SDS011;27809;51.864;5.646;2023-08-07T04:03:17;6.13;;;1.42;;
42140;SDS011;27809;51.864;5.646;2023-08-07T04:05:43;9.48;;;1.70;;
42140;SDS011;27809;51.864;5.646;2023-08-07T04:08:09;8.85;;;1.60;;
42140;SDS011;27809;51.864;5.646;2023-08-07T04:10:34;14.25;;;2.58;;
42140;SDS011;27809;51.864;5.646;2023-08-07T04:13:00;9.35;;;1.27;;
42140;SDS011;27809;51.864;5.646;2023-08-07T04:15:25;6.78;;;1.10;;
42140;SDS011;27809;51.864;5.646;2023-08-07T04:17:51;8.60;;;1.00;;
42140;SDS011;27809;51.864;5.646;2023-08-07T04:20:17;10.70;;;1.98;;
42140;SDS011;27809;51.864;5.646;2023-08-07T04:22:42;7.40;;;1.17;;
42140;SDS011;27809;51.864;5.646;2023-08-07T04:25:09;5.60;;;0.82;;
42140;SDS011;27809;51.864;5.646;2023-08-07T04:27:35;6.25;;;1.45;;
42140;SDS011;27809;51.864;5.646;2023-08-07T04:30:00;12.98;;;1.60;;
42140;SDS011;27809;51.864;5.646;2023-08-07T04:32:26;7.95;;;1.10;;
42140;SDS011;27809;51.864;5.646;2023-08-07T04:34:51;6.50;;;0.73;;
42140;SDS011;27809;51.864;5.646;2023-08-07T04:37:17;6.65;;;1.52;;
42140;SDS011;27809;51.864;5.646;2023-08-07T04:39:42;13.27;;;2.22;;
42140;SDS011;27809;51.864;5.646;2023-08-07T04:42:08;11.10;;;1.13;;
42140;SDS011;27809;51.864;5.646;2023-08-07T04:44:33;9.32;;;2.17;;
42140;SDS011;27809;51.864;5.646;2023-08-07T04:46:59;11.63;;;1.25;;
42140;SDS011;27809;51.864;5.646;2023-08-07T04:49:24;5.22;;;1.05;;
42140;SDS011;27809;51.864;5.646;2023-08-07T04:51:50;10.50;;;0.82;;
42140;SDS011;27809;51.864;5.646;2023-08-07T04:54:15;10.15;;;2.40;;
42140;SDS011;27809;51.864;5.646;2023-08-07T04:56:41;6.20;;;0.70;;
42140;SDS011;27809;51.864;5.646;2023-08-07T04:59:09;9.10;;;1.17;;
42140;SDS011;27809;51.864;5.646;2023-08-07T05:01:35;4.38;;;1.00;;
42140;SDS011;27809;51.864;5.646;2023-08-07T05:04:00;8.90;;;1.02;;
42140;SDS011;27809;51.864;5.646;2023-08-07T05:06:26;15.40;;;2.70;;
42140;SDS011;27809;51.864;5.646;2023-08-07T05:08:52;10.02;;;1.45;;
42140;SDS011;27809;51.864;5.646;2023-08-07T05:11:17;5.50;;;0.70;;
42140;SDS011;27809;51.864;5.646;2023-08-07T05:13:44;11.48;;;1.35;;
42140;SDS011;27809;51.864;5.646;2023-08-07T05:16:10;6.50;;;1.02;;
42140;SDS011;27809;51.864;5.646;2023-08-07T05:18:35;8.93;;;1.33;;
42140;SDS011;27809;51.864;5.646;2023-08-07T05:21:01;17.35;;;2.15;;
42140;SDS011;27809;51.864;5.646;2023-08-07T05:23:27;8.18;;;1.25;;
42140;SDS011;27809;51.864;5.646;2023-08-07T05:25:52;3.70;;;1.17;;
42140;SDS011;27809;51.864;5.646;2023-08-07T05:28:18;9.00;;;2.05;;
42140;SDS011;27809;51.864;5.646;2023-08-07T05:30:43;6.90;;;1.05;;
42140;SDS011;27809;51.864;5.646;2023-08-07T05:33:09;9.52;;;1.92;;
42140;SDS011;27809;51.864;5.646;2023-08-07T05:35:34;7.20;;;1.30;;
42140;SDS011;27809;51.864;5.646;2023-08-07T05:38:02;4.63;;;1.38;;
42140;SDS011;27809;51.864;5.646;2023-08-07T05:40:28;9.00;;;0.88;;
42140;SDS011;27809;51.864;5.646;2023-08-07T05:42:54;15.30;;;1.65;;
42140;SDS011;27809;51.864;5.646;2023-08-07T05:45:20;7.50;;;1.20;;
42140;SDS011;27809;51.864;5.646;2023-08-07T05:47:45;12.10;;;2.22;;
42140;SDS011;27809;51.864;5.646;2023-08-07T05:50:11;7.22;;;2.22;;
42140;SDS011;27809;51.864;5.646;2023-08-07T05:52:36;8.20;;;1.02;;
42140;SDS011;27809;51.864;5.646;2023-08-07T05:55:03;6.45;;;0.73;;
42140;SDS011;27809;51.864;5.646;2023-08-07T05:57:29;8.98;;;1.90;;
42140;SDS011;27809;51.864;5.646;2023-08-07T05:59:54;7.85;;;2.15;;
42140;SDS011;27809;51.864;5.646;2023-08-07T06:02:20;9.07;;;2.00;;
42140;SDS011;27809;51.864;5.646;2023-08-07T06:04:45;9.00;;;1.50;;
42140;SDS011;27809;51.864;5.646;2023-08-07T06:07:11;8.35;;;2.22;;
42140;SDS011;27809;51.864;5.646;2023-08-07T06:09:37;9.63;;;1.92;;
42140;SDS011;27809;51.864;5.646;2023-08-07T06:12:03;19.98;;;2.65;;
42140;SDS011;27809;51.864;5.646;2023-08-07T06:14:28;8.43;;;1.33;;
42140;SDS011;27809;51.864;5.646;2023-08-07T06:16:55;10.98;;;1.48;;
42140;SDS011;27809;51.864;5.646;2023-08-07T06:19:22;4.97;;;0.65;;
42140;SDS011;27809;51.864;5.646;2023-08-07T06:21:48;5.88;;;0.80;;
42140;SDS011;27809;51.864;5.646;2023-08-07T06:24:14;6.57;;;1.55;;
42140;SDS011;27809;51.864;5.646;2023-08-07T06:26:39;3.95;;;0.63;;
42140;SDS011;27809;51.864;5.646;2023-08-07T06:29:05;15.38;;;1.70;;
42140;SDS011;27809;51.864;5.646;2023-08-07T06:31:30;2.85;;;0.73;;
42140;SDS011;27809;51.864;5.646;2023-08-07T06:33:56;6.43;;;1.15;;
42140;SDS011;27809;51.864;5.646;2023-08-07T06:36:21;8.15;;;0.63;;
42140;SDS011;27809;51.864;5.646;2023-08-07T06:38:47;6.68;;;1.65;;
42140;SDS011;27809;51.864;5.646;2023-08-07T06:41:13;7.35;;;1.15;;
42140;SDS011;27809;51.864;5.646;2023-08-07T06:43:38;11.00;;;1.02;;
42140;SDS011;27809;51.864;5.646;2023-08-07T06:46:04;9.63;;;1.17;;
42140;SDS011;27809;51.864;5.646;2023-08-07T06:48:29;6.55;;;2.10;;
42140;SDS011;27809;51.864;5.646;2023-08-07T06:50:55;8.68;;;1.90;;
42140;SDS011;27809;51.864;5.646;2023-08-07T06:53:20;6.45;;;1.35;;
42140;SDS011;27809;51.864;5.646;2023-08-07T06:55:46;7.15;;;0.52;;
42140;SDS011;27809;51.864;5.646;2023-08-07T06:58:11;6.60;;;0.98;;
42140;SDS011;27809;51.864;5.646;2023-08-07T07:00:37;11.20;;;1.73;;
42140;SDS011;27809;51.864;5.646;2023-08-07T07:03:03;6.40;;;0.90;;
42140;SDS011;27809;51.864;5.646;2023-08-07T07:05:29;9.23;;;2.00;;
42140;SDS011;27809;51.864;5.646;2023-08-07T07:07:55;6.03;;;1.30;;
42140;SDS011;27809;51.864;5.646;2023-08-07T07:10:21;8.50;;;1.45;;
42140;SDS011;27809;51.864;5.646;2023-08-07T07:12:46;6.82;;;1.10;;
42140;SDS011;27809;51.864;5.646;2023-08-07T07:15:13;8.15;;;1.95;;
42140;SDS011;27809;51.864;5.646;2023-08-07T07:17:38;11.55;;;1.45;;
42140;SDS011;27809;51.864;5.646;2023-08-07T07:20:04;10.88;;;2.10;;
42140;SDS011;27809;51.864;5.646;2023-08-07T07:22:30;5.05;;;1.08;;
42140;SDS011;27809;51.864;5.646;2023-08-07T07:24:56;6.28;;;1.75;;
42140;SDS011;27809;51.864;5.646;2023-08-07T07:27:21;6.70;;;1.90;;
42140;SDS011;27809;51.864;5.646;2023-08-07T07:29:47;12.85;;;1.73;;
42140;SDS011;27809;51.864;5.646;2023-08-07T07:32:13;8.30;;;0.95;;
42140;SDS011;27809;51.864;5.646;2023-08-07T07:34:39;8.32;;;1.80;;
42140;SDS011;27809;51.864;5.646;2023-08-07T07:37:05;7.30;;;1.13;;
42140;SDS011;27809;51.864;5.646;2023-08-07T07:39:30;11.50;;;1.55;;
42140;SDS011;27809;51.864;5.646;2023-08-07T07:41:56;7.55;;;1.63;;
42140;SDS011;27809;51.864;5.646;2023-08-07T07:44:21;3.40;;;0.90;;
42140;SDS011;27809;51.864;5.646;2023-08-07T07:46:47;6.43;;;0.88;;
42140;SDS011;27809;51.864;5.646;2023-08-07T07:49:12;10.02;;;1.70;;
42140;SDS011;27809;51.864;5.646;2023-08-07T07:51:38;9.80;;;1.73;;
42140;SDS011;27809;51.864;5.646;2023-08-07T07:54:05;7.30;;;1.50;;
42140;SDS011;27809;51.864;5.646;2023-08-07T07:56:31;11.20;;;1.85;;
42140;SDS011;27809;51.864;5.646;2023-08-07T07:58:56;4.57;;;0.95;;
42140;SDS011;27809;51.864;5.646;2023-08-07T08:01:22;9.07;;;1.83;;
42140;SDS011;27809;51.864;5.646;2023-08-07T08:03:48;8.63;;;2.70;;
42140;SDS011;27809;51.864;5.646;2023-08-07T08:06:13;8.85;;;1.35;;
42140;SDS011;27809;51.864;5.646;2023-08-07T08:08:39;11.27;;;1.95;;
42140;SDS011;27809;51.864;5.646;2023-08-07T08:11:04;12.25;;;2.67;;
42140;SDS011;27809;51.864;5.646;2023-08-07T08:13:30;6.78;;;1.30;;
42140;SDS011;27809;51.864;5.646;2023-08-07T08:15:56;5.75;;;1.77;;
42140;SDS011;27809;51.864;5.646;2023-08-07T08:18:21;10.13;;;1.70;;
42140;SDS011;27809;51.864;5.646;2023-08-07T08:20:46;16.67;;;2.55;;
42140;SDS011;27809;51.864;5.646;2023-08-07T08:23:12;15.95;;;2.83;;
42140;SDS011;27809;51.864;5.646;2023-08-07T08:25:38;9.45;;;1.63;;
42140;SDS011;27809;51.864;5.646;2023-08-07T08:28:03;10.95;;;1.73;;
42140;SDS011;27809;51.864;5.646;2023-08-07T08:30:29;15.48;;;3.03;;
42140;SDS011;27809;51.864;5.646;2023-08-07T08:32:54;10.00;;;1.77;;
42140;SDS011;27809;51.864;5.646;2023-08-07T08:35:20;11.43;;;0.70;;
42140;SDS011;27809;51.864;5.646;2023-08-07T08:37:46;7.15;;;1.80;;
42140;SDS011;27809;51.864;5.646;2023-08-07T08:40:11;4.50;;;1.25;;
42140;SDS011;27809;51.864;5.646;2023-08-07T08:42:39;5.65;;;0.77;;
42140;SDS011;27809;51.864;5.646;2023-08-07T08:45:05;9.85;;;1.58;;
42140;SDS011;27809;51.864;5.646;2023-08-07T08:47:35;13.13;;;1.50;;
42140;SDS011;27809;51.864;5.646;2023-08-07T08:50:03;4.45;;;0.98;;
42140;SDS011;27809;51.864;5.646;2023-08-07T08:52:31;9.10;;;0.90;;
42140;SDS011;27809;51.864;5.646;2023-08-07T08:54:57;7.93;;;0.80;;
42140;SDS011;27809;51.864;5.646;2023-08-07T08:57:24;7.82;;;1.40;;
42140;SDS011;27809;51.864;5.646;2023-08-07T08:59:51;5.07;;;0.65;;
42140;SDS011;27809;51.864;5.646;2023-08-07T09:02:17;3.92;;;0.85;;
42140;SDS011;27809;51.864;5.646;2023-08-07T09:04:43;6.28;;;0.95;;
42140;SDS011;27809;51.864;5.646;2023-08-07T09:07:09;9.70;;;1.02;;
42140;SDS011;27809;51.864;5.646;2023-08-07T09:09:38;14.52;;;0.60;;
42140;SDS011;27809;51.864;5.646;2023-08-07T09:12:05;4.78;;;0.65;;
42140;SDS011;27809;51.864;5.646;2023-08-07T09:14:33;6.47;;;1.25;;
42140;SDS011;27809;51.864;5.646;2023-08-07T09:17:02;4.07;;;0.90;;
42140;SDS011;27809;51.864;5.646;2023-08-07T09:19:29;8.77;;;1.00;;
42140;SDS011;27809;51.864;5.646;2023-08-07T09:21:55;5.18;;;1.58;;
42140;SDS011;27809;51.864;5.646;2023-08-07T09:24:20;6.22;;;1.00;;
42140;SDS011;27809;51.864;5.646;2023-08-07T09:26:47;4.05;;;0.57;;
42140;SDS011;27809;51.864;5.646;2023-08-07T09:29:15;8.82;;;1.30;;
42140;SDS011;27809;51.864;5.646;2023-08-07T09:31:42;3.70;;;1.27;;
42140;SDS011;27809;51.864;5.646;2023-08-07T09:34:10;4.45;;;0.50;;
42140;SDS011;27809;51.864;5.646;2023-08-07T09:36:38;6.88;;;1.23;;
42140;SDS011;27809;51.864;5.646;2023-08-07T09:39:04;3.63;;;0.52;;
42140;SDS011;27809;51.864;5.646;2023-08-07T09:41:30;6.03;;;0.90;;
42140;SDS011;27809;51.864;5.646;2023-08-07T09:43:59;5.47;;;0.40;;
42140;SDS011;27809;51.864;5.646;2023-08-07T09:46:42;6.32;;;0.73;;
42140;SDS011;27809;51.864;5.646;2023-08-07T09:49:08;10.43;;;1.60;;
42140;SDS011;27809;51.864;5.646;2023-08-07T09:51:44;7.97;;;1.05;;
42140;SDS011;27809;51.864;5.646;2023-08-07T09:54:10;6.85;;;0.93;;
42140;SDS011;27809;51.864;5.646;2023-08-07T09:56:36;8.18;;;0.85;;
42140;SDS011;27809;51.864;5.646;2023-08-07T09:59:03;5.43;;;0.60;;
42140;SDS011;27809;51.864;5.646;2023-08-07T10:01:29;7.70;;;0.77;;
42140;SDS011;27809;51.864;5.646;2023-08-07T10:03:55;5.30;;;0.65;;
42140;SDS011;27809;51.864;5.646;2023-08-07T10:06:21;3.60;;;0.50;;
42140;SDS011;27809;51.864;5.646;2023-08-07T10:08:47;7.93;;;1.58;;
42140;SDS011;27809;51.864;5.646;2023-08-07T10:11:13;4.15;;;0.30;;
42140;SDS011;27809;51.864;5.646;2023-08-07T10:13:40;6.45;;;0.73;;
42140;SDS011;27809;51.864;5.646;2023-08-07T10:16:06;3.40;;;0.82;;
42140;SDS011;27809;51.864;5.646;2023-08-07T10:18:32;5.47;;;1.05;;
42140;SDS011;27809;51.864;5.646;2023-08-07T10:20:58;5.93;;;0.63;;
42140;SDS011;27809;51.864;5.646;2023-08-07T10:23:26;3.03;;;0.43;;
42140;SDS011;27809;51.864;5.646;2023-08-07T10:25:52;4.78;;;0.57;;
42140;SDS011;27809;51.864;5.646;2023-08-07T10:28:19;5.50;;;1.10;;
42140;SDS011;27809;51.864;5.646;2023-08-07T10:30:46;2.42;;;0.75;;
42140;SDS011;27809;51.864;5.646;2023-08-07T10:33:13;5.85;;;1.15;;
42140;SDS011;27809;51.864;5.646;2023-08-07T10:35:44;4.95;;;0.85;;
42140;SDS011;27809;51.864;5.646;2023-08-07T10:38:11;8.60;;;1.27;;
42140;SDS011;27809;51.864;5.646;2023-08-07T10:40:57;7.07;;;1.15;;
42140;SDS011;27809;51.864;5.646;2023-08-07T10:43:23;3.42;;;0.60;;
42140;SDS011;27809;51.864;5.646;2023-08-07T10:45:50;6.38;;;1.58;;
42140;SDS011;27809;51.864;5.646;2023-08-07T10:48:18;3.58;;;0.50;;
42140;SDS011;27809;51.864;5.646;2023-08-07T10:53:20;4.97;;;0.85;;
42140;SDS011;27809;51.864;5.646;2023-08-07T10:55:53;5.15;;;0.40;;
42140;SDS011;27809;51.864;5.646;2023-08-07T11:03:44;8.63;;;1.08;;
42140;SDS011;27809;51.864;5.646;2023-08-07T11:06:10;6.25;;;0.57;;
42140;SDS011;27809;51.864;5.646;2023-08-07T11:08:36;7.18;;;0.88;;
42140;SDS011;27809;51.864;5.646;2023-08-07T11:11:06;4.03;;;0.80;;
42140;SDS011;27809;51.864;5.646;2023-08-07T11:13:32;7.70;;;1.33;;
42140;SDS011;27809;51.864;5.646;2023-08-07T11:15:58;5.30;;;0.80;;
42140;SDS011;27809;51.864;5.646;2023-08-07T11:18:25;6.45;;;0.57;;
42140;SDS011;27809;51.864;5.646;2023-08-07T11:20:52;8.63;;;0.82;;
42140;SDS011;27809;51.864;5.646;2023-08-07T11:23:24;8.90;;;1.08;;
42140;SDS011;27809;51.864;5.646;2023-08-07T11:25:53;3.90;;;0.50;;
42140;SDS011;27809;51.864;5.646;2023-08-07T11:28:20;5.75;;;1.25;;
42140;SDS011;27809;51.864;5.646;2023-08-07T11:30:48;5.50;;;0.52;;
42140;SDS011;27809;51.864;5.646;2023-08-07T11:33:20;6.57;;;1.13;;
42140;SDS011;27809;51.864;5.646;2023-08-07T11:35:47;4.20;;;1.15;;
42140;SDS011;27809;51.864;5.646;2023-08-07T11:38:13;2.95;;;0.50;;
42140;SDS011;27809;51.864;5.646;2023-08-07T11:40:53;4.03;;;1.20;;
42140;SDS011;27809;51.864;5.646;2023-08-07T11:43:18;7.57;;;1.30;;
42140;SDS011;27809;51.864;5.646;2023-08-07T11:45:44;3.67;;;0.77;;
42140;SDS011;27809;51.864;5.646;2023-08-07T11:48:09;3.58;;;0.50;;
42140;SDS011;27809;51.864;5.646;2023-08-07T11:50:35;4.97;;;0.65;;
42140;SDS011;27809;51.864;5.646;2023-08-07T11:53:01;3.33;;;0.50;;
42140;SDS011;27809;51.864;5.646;2023-08-07T11:55:27;5.00;;;0.32;;
42140;SDS011;27809;51.864;5.646;2023-08-07T11:57:54;6.47;;;0.82;;
42140;SDS011;27809;51.864;5.646;2023-08-07T12:00:19;8.77;;;0.85;;
42140;SDS011;27809;51.864;5.646;2023-08-07T12:02:45;4.30;;;0.77;;
42140;SDS011;27809;51.864;5.646;2023-08-07T12:05:11;4.35;;;0.50;;
42140;SDS011;27809;51.864;5.646;2023-08-07T12:07:37;5.38;;;0.52;;
42140;SDS011;27809;51.864;5.646;2023-08-07T12:10:06;5.90;;;0.68;;
42140;SDS011;27809;51.864;5.646;2023-08-07T12:12:33;5.20;;;1.15;;
42140;SDS011;27809;51.864;5.646;2023-08-07T12:15:00;1.33;;;0.30;;
42140;SDS011;27809;51.864;5.646;2023-08-07T12:17:26;3.92;;;0.95;;
42140;SDS011;27809;51.864;5.646;2023-08-07T12:19:51;1.67;;;0.73;;
42140;SDS011;27809;51.864;5.646;2023-08-07T12:22:18;6.25;;;0.63;;
42140;SDS011;27809;51.864;5.646;2023-08-07T12:24:45;1.73;;;0.40;;
42140;SDS011;27809;51.864;5.646;2023-08-07T12:27:11;7.40;;;0.80;;
42140;SDS011;27809;51.864;5.646;2023-08-07T12:29:36;3.42;;;1.38;;
42140;SDS011;27809;51.864;5.646;2023-08-07T12:32:02;5.75;;;0.38;;
42140;SDS011;27809;51.864;5.646;2023-08-07T12:34:27;2.20;;;0.47;;
42140;SDS011;27809;51.864;5.646;2023-08-07T12:36:53;5.35;;;0.55;;
42140;SDS011;27809;51.864;5.646;2023-08-07T12:39:19;3.63;;;0.75;;
42140;SDS011;27809;51.864;5.646;2023-08-07T12:41:45;4.50;;;0.82;;
42140;SDS011;27809;51.864;5.646;2023-08-07T12:44:13;2.38;;;0.40;;
42140;SDS011;27809;51.864;5.646;2023-08-07T12:46:38;6.40;;;1.23;;
42140;SDS011;27809;51.864;5.646;2023-08-07T12:49:05;3.42;;;0.30;;
42140;SDS011;27809;51.864;5.646;2023-08-07T12:51:33;2.40;;;0.40;;
42140;SDS011;27809;51.864;5.646;2023-08-07T12:53:59;1.20;;;0.30;;
42140;SDS011;27809;51.864;5.646;2023-08-07T12:56:24;5.75;;;0.52;;
42140;SDS011;27809;51.864;5.646;2023-08-07T12:58:50;3.05;;;0.30;;
42140;SDS011;27809;51.864;5.646;2023-08-07T13:01:15;10.30;;;1.08;;
42140;SDS011;27809;51.864;5.646;2023-08-07T13:03:41;2.00;;;0.30;;
42140;SDS011;27809;51.864;5.646;2023-08-07T13:06:06;3.70;;;0.30;;
42140;SDS011;27809;51.864;5.646;2023-08-07T13:08:33;2.33;;;0.95;;
42140;SDS011;27809;51.864;5.646;2023-08-07T13:11:00;2.60;;;0.40;;
42140;SDS011;27809;51.864;5.646;2023-08-07T13:13:26;6.80;;;1.20;;
42140;SDS011;27809;51.864;5.646;2023-08-07T13:15:53;2.30;;;0.32;;
42140;SDS011;27809;51.864;5.646;2023-08-07T13:18:19;3.17;;;0.47;;
42140;SDS011;27809;51.864;5.646;2023-08-07T13:20:44;3.85;;;1.00;;
42140;SDS011;27809;51.864;5.646;2023-08-07T13:23:11;5.35;;;0.77;;
42140;SDS011;27809;51.864;5.646;2023-08-07T13:25:37;3.65;;;0.50;;
42140;SDS011;27809;51.864;5.646;2023-08-07T13:28:03;2.25;;;0.55;;
42140;SDS011;27809;51.864;5.646;2023-08-07T13:30:31;2.30;;;0.52;;
42140;SDS011;27809;51.864;5.646;2023-08-07T13:33:00;1.90;;;0.65;;
42140;SDS011;27809;51.864;5.646;2023-08-07T13:35:25;4.38;;;0.45;;
42140;SDS011;27809;51.864;5.646;2023-08-07T13:37:51;5.05;;;0.57;;
42140;SDS011;27809;51.864;5.646;2023-08-07T13:40:17;2.72;;;0.38;;
42140;SDS011;27809;51.864;5.646;2023-08-07T13:42:43;0.82;;;0.30;;
42140;SDS011;27809;51.864;5.646;2023-08-07T13:45:09;1.52;;;0.32;;
42140;SDS011;27809;51.864;5.646;2023-08-07T13:47:35;1.75;;;0.20;;
42140;SDS011;27809;51.864;5.646;2023-08-07T13:50:02;1.10;;;0.20;;
42140;SDS011;27809;51.864;5.646;2023-08-07T13:52:28;1.45;;;0.57;;
42140;SDS011;27809;51.864;5.646;2023-08-07T13:54:53;4.90;;;0.47;;
42140;SDS011;27809;51.864;5.646;2023-08-07T13:57:19;1.85;;;0.30;;
42140;SDS011;27809;51.864;5.646;2023-08-07T13:59:44;1.95;;;0.60;;
42140;SDS011;27809;51.864;5.646;2023-08-07T14:02:10;1.98;;;0.20;;
42140;SDS011;27809;51.864;5.646;2023-08-07T14:04:35;2.25;;;0.90;;
42140;SDS011;27809;51.864;5.646;2023-08-07T14:07:01;0.77;;;0.30;;
42140;SDS011;27809;51.864;5.646;2023-08-07T14:09:27;4.00;;;0.28;;
42140;SDS011;27809;51.864;5.646;2023-08-07T14:11:53;1.05;;;0.30;;
42140;SDS011;27809;51.864;5.646;2023-08-07T14:14:18;1.30;;;0.20;;
42140;SDS011;27809;51.864;5.646;2023-08-07T14:16:44;4.47;;;0.30;;
42140;SDS011;27809;51.864;5.646;2023-08-07T14:19:09;2.13;;;0.73;;
42140;SDS011;27809;51.864;5.646;2023-08-07T14:21:35;2.72;;;0.43;;
42140;SDS011;27809;51.864;5.646;2023-08-07T14:24:01;7.00;;;0.63;;
42140;SDS011;27809;51.864;5.646;2023-08-07T14:26:26;1.52;;;0.30;;
42140;SDS011;27809;51.864;5.646;2023-08-07T14:28:52;1.38;;;0.20;;
42140;SDS011;27809;51.864;5.646;2023-08-07T14:31:17;2.13;;;0.20;;
42140;SDS011;27809;51.864;5.646;2023-08-07T14:33:43;19.90;;;4.57;;
42140;SDS011;27809;51.864;5.646;2023-08-07T14:36:08;422.27;;;138.88;;
42140;SDS011;27809;51.864;5.646;2023-08-07T14:38:34;334.35;;;123.07;;
42140;SDS011;27809;51.864;5.646;2023-08-07T14:40:59;64.53;;;30.92;;
42140;SDS011;27809;51.864;5.646;2023-08-07T14:43:28;793.20;;;326.05;;
42140;SDS011;27809;51.864;5.646;2023-08-07T14:45:54;471.95;;;171.10;;
42140;SDS011;27809;51.864;5.646;2023-08-07T14:48:20;720.80;;;300.20;;
42140;SDS011;27809;51.864;5.646;2023-08-07T14:50:45;549.67;;;217.73;;